Time;durP1;ratioP1;P1;durP2;ratioP2;P2;SDS_P1;SDS_P2;PMS_P1;PMS_P2;Temp;Humidity;BMP_temperature;BMP_pressure;BME280_temperature;BME280_humidity;BME280_pressure;Samples;Min_cycle;Max_cycle;Signal;HPM_P1;HPM_P2
2022/10/15 00:02:40;;;;;;;27.08;16.83;;;;;;;;;;5108697;28;20063;-74
2022/10/15 00:05:44;;;;;;;27.38;16.92;;;;;;;;;;5108421;28;20051;-73
2022/10/15 00:08:49;;;;;;;24.20;16.58;;;;;;;;;;5108195;28;20040;-73
2022/10/15 00:11:53;;;;;;;25.23;16.70;;;;;;;;;;5108114;28;20051;-73
2022/10/15 00:14:57;;;;;;;25.48;16.48;;;;;;;;;;5087828;28;20032;-73
2022/10/15 00:18:02;;;;;;;24.80;16.63;;;;;;;;;;5087974;28;20040;-73
2022/10/15 00:21:09;;;;;;;28.35;16.38;;;;;;;;;;5087886;28;20041;-73
2022/10/15 00:24:14;;;;;;;25.42;17.67;;;;;;;;;;5088007;28;20508;-73
2022/10/15 00:27:18;;;;;;;29.77;17.88;;;;;;;;;;5087886;28;20036;-74
2022/10/15 00:30:22;;;;;;;27.80;17.67;;;;;;;;;;5087325;28;20045;-73
2022/10/15 00:33:28;;;;;;;29.48;18.45;;;;;;;;;;5075034;28;20033;-73
2022/10/15 00:36:33;;;;;;;29.67;18.00;;;;;;;;;;5086491;28;20029;-73
2022/10/15 00:39:38;;;;;;;27.25;17.48;;;;;;;;;;5087636;28;20051;-73
2022/10/15 00:42:42;;;;;;;24.45;17.15;;;;;;;;;;5077086;28;20518;-73
2022/10/15 00:45:47;;;;;;;37.22;16.95;;;;;;;;;;5074015;28;20048;-73
2022/10/15 00:48:54;;;;;;;27.83;17.80;;;;;;;;;;5074461;28;20036;-73
2022/10/15 00:51:58;;;;;;;26.23;17.60;;;;;;;;;;5072755;28;20067;-74
2022/10/15 00:55:06;;;;;;;27.65;17.65;;;;;;;;;;5073531;28;20028;-73
2022/10/15 00:58:12;;;;;;;26.73;17.67;;;;;;;;;;5073462;28;20396;-73
2022/10/15 01:01:17;;;;;;;23.55;17.08;;;;;;;;;;5072899;28;20392;-73
2022/10/15 01:04:22;;;;;;;21.15;16.10;;;;;;;;;;5073767;28;20048;-74
2022/10/15 01:07:26;;;;;;;32.10;19.52;;;;;;;;;;5073659;28;20037;-73
2022/10/15 01:10:44;;;;;;;27.13;18.00;;;;;;;;;;5073461;28;20514;-73
2022/10/15 01:14:15;;;;;;;22.98;16.33;;;;;;;;;;5072358;28;20522;-73
2022/10/15 01:17:40;;;;;;;29.23;17.85;;;;;;;;;;5072579;28;20048;-73
2022/10/15 01:20:55;;;;;;;25.35;16.58;;;;;;;;;;5073428;28;20400;-73
2022/10/15 01:23:59;;;;;;;23.88;17.05;;;;;;;;;;5073326;28;20051;-73
2022/10/15 01:27:22;;;;;;;27.17;17.55;;;;;;;;;;5072254;28;20032;-74
2022/10/15 01:30:46;;;;;;;24.00;17.60;;;;;;;;;;5072730;28;20362;-73
2022/10/15 01:34:01;;;;;;;26.85;18.15;;;;;;;;;;5072217;28;20067;-74
2022/10/15 01:37:12;;;;;;;23.08;17.92;;;;;;;;;;5072313;28;20040;-73
2022/10/15 01:40:26;;;;;;;26.58;17.13;;;;;;;;;;5072290;28;20044;-73
2022/10/15 01:43:44;;;;;;;25.75;18.05;;;;;;;;;;5071812;28;20033;-73
2022/10/15 01:47:24;;;;;;;28.27;19.00;;;;;;;;;;5072675;28;20067;-73
2022/10/15 01:50:30;;;;;;;26.45;18.77;;;;;;;;;;5071880;28;20074;-73
2022/10/15 01:53:36;;;;;;;32.72;18.02;;;;;;;;;;5071033;28;20479;-73
2022/10/15 01:56:40;;;;;;;29.15;19.92;;;;;;;;;;5071827;28;20051;-73
2022/10/15 01:59:45;;;;;;;30.95;20.00;;;;;;;;;;5071688;28;20048;-73
2022/10/15 02:02:49;;;;;;;28.98;19.42;;;;;;;;;;5071494;28;20028;-73
2022/10/15 02:06:00;;;;;;;30.98;19.40;;;;;;;;;;5071509;28;20048;-73
2022/10/15 02:09:05;;;;;;;;;;;;;;;;;;5071924;28;20421;-73
2022/10/15 02:12:12;;;;;;;30.13;17.15;;;;;;;;;;5072107;28;19923;-73
2022/10/15 02:15:19;;;;;;;28.33;17.30;;;;;;;;;;5071463;28;20032;-74
2022/10/15 02:18:42;;;;;;;25.45;18.25;;;;;;;;;;5072033;28;20365;-73
2022/10/15 02:21:49;;;;;;;23.35;17.23;;;;;;;;;;5072240;28;20044;-73
2022/10/15 02:24:58;;;;;;;29.20;18.10;;;;;;;;;;5071054;28;20048;-73
2022/10/15 02:28:03;;;;;;;28.63;18.38;;;;;;;;;;5071957;28;20051;-73
2022/10/15 02:31:09;;;;;;;27.75;16.63;;;;;;;;;;5070800;28;20068;-73
2022/10/15 02:34:16;;;;;;;25.17;17.08;;;;;;;;;;5071813;28;20043;-73
2022/10/15 02:37:22;;;;;;;27.17;17.08;;;;;;;;;;5060248;28;20565;-73
2022/10/15 02:40:28;;;;;;;31.20;18.33;;;;;;;;;;5070793;28;20416;-73
2022/10/15 02:43:32;;;;;;;24.15;16.67;;;;;;;;;;5071811;28;20043;-73
2022/10/15 02:46:36;;;;;;;26.95;17.30;;;;;;;;;;5071590;28;20043;-73
2022/10/15 02:49:41;;;;;;;25.88;17.15;;;;;;;;;;5070703;28;20063;-73
2022/10/15 02:52:45;;;;;;;29.00;17.08;;;;;;;;;;5070847;28;20542;-73
2022/10/15 02:55:50;;;;;;;26.65;18.85;;;;;;;;;;5070663;28;20388;-73
2022/10/15 02:58:55;;;;;;;22.88;16.92;;;;;;;;;;5070883;28;20051;-74
2022/10/15 03:01:59;;;;;;;30.58;17.23;;;;;;;;;;5070330;28;20036;-73
2022/10/15 03:05:05;;;;;;;24.73;16.95;;;;;;;;;;5070468;28;20047;-73
2022/10/15 03:08:09;;;;;;;29.80;20.77;;;;;;;;;;5071872;28;20043;-73
2022/10/15 03:11:14;;;;;;;24.95;19.15;;;;;;;;;;5071315;28;20412;-73
2022/10/15 03:14:18;;;;;;;32.25;19.27;;;;;;;;;;5070232;28;20051;-73
2022/10/15 03:17:22;;;;;;;28.50;19.58;;;;;;;;;;5071434;28;20043;-73
2022/10/15 03:20:27;;;;;;;30.17;19.48;;;;;;;;;;5070508;28;20044;-73
2022/10/15 03:23:31;;;;;;;29.13;20.52;;;;;;;;;;5070252;28;20043;-73
2022/10/15 03:26:44;;;;;;;27.77;19.02;;;;;;;;;;5070215;28;20440;-73
2022/10/15 03:29:48;;;;;;;29.30;18.10;;;;;;;;;;5070288;28;20039;-73
2022/10/15 03:32:52;;;;;;;25.23;17.63;;;;;;;;;;5071201;28;20052;-73
2022/10/15 03:35:57;;;;;;;27.17;18.75;;;;;;;;;;5070263;28;20055;-73
2022/10/15 03:39:02;;;;;;;30.30;19.20;;;;;;;;;;5070168;28;20059;-73
2022/10/15 03:42:07;;;;;;;29.42;18.15;;;;;;;;;;5070882;28;20048;-73
2022/10/15 03:45:15;;;;;;;27.33;17.92;;;;;;;;;;5070423;28;20056;-73
2022/10/15 03:48:20;;;;;;;24.95;16.83;;;;;;;;;;5070077;28;20052;-73
2022/10/15 03:51:24;;;;;;;27.48;17.60;;;;;;;;;;5058552;28;20052;-73
2022/10/15 03:54:33;;;;;;;25.15;17.35;;;;;;;;;;5070128;28;20047;-73
2022/10/15 03:57:38;;;;;;;30.30;18.10;;;;;;;;;;5070217;28;20040;-73
2022/10/15 04:00:44;;;;;;;30.65;18.90;;;;;;;;;;5069877;28;20044;-73
2022/10/15 04:03:52;;;;;;;27.40;18.10;;;;;;;;;;5069866;28;20035;-73
2022/10/15 04:06:58;;;;;;;24.10;17.85;;;;;;;;;;5070121;28;20052;-74
2022/10/15 04:10:03;;;;;;;28.95;18.67;;;;;;;;;;5069870;28;20040;-73
2022/10/15 04:13:14;;;;;;;;;;;;;;;;;;5070395;28;20542;-72
2022/10/15 04:16:20;;;;;;;27.45;17.83;;;;;;;;;;5069863;28;19923;-73
2022/10/15 04:19:25;;;;;;;32.83;18.55;;;;;;;;;;5073451;28;20605;-73
2022/10/15 04:22:37;;;;;;;28.33;20.33;;;;;;;;;;5073609;28;20395;-73
2022/10/15 04:25:44;;;;;;;24.33;16.75;;;;;;;;;;5062256;28;20107;-73
2022/10/15 04:28:50;;;;;;;26.25;18.42;;;;;;;;;;5073636;28;20043;-74
2022/10/15 04:31:57;;;;;;;29.17;18.13;;;;;;;;;;5073054;28;20416;-73
2022/10/15 04:35:01;;;;;;;33.08;18.92;;;;;;;;;;5073065;28;20044;-73
2022/10/15 04:38:24;;;;;;;35.50;18.13;;;;;;;;;;5073327;28;20040;-73
2022/10/15 04:41:46;;;;;;;25.75;17.15;;;;;;;;;;5073370;28;20036;-73
2022/10/15 04:44:54;;;;;;;31.60;18.90;;;;;;;;;;5073184;28;20507;-73
2022/10/15 04:47:57;;;;;;;35.45;19.42;;;;;;;;;;5073340;28;20040;-73
2022/10/15 04:51:03;;;;;;;29.08;18.38;;;;;;;;;;5072987;28;20110;-73
2022/10/15 04:54:17;;;;;;;27.50;18.38;;;;;;;;;;5062790;28;20039;-72
2022/10/15 04:57:36;;;;;;;31.23;18.60;;;;;;;;;;5073092;28;20044;-73
2022/10/15 05:00:41;;;;;;;27.25;18.70;;;;;;;;;;5072968;28;20388;-72
2022/10/15 05:04:11;;;;;;;30.30;18.27;;;;;;;;;;5072952;28;20055;-72
2022/10/15 05:07:16;;;;;;;103.78;27.73;;;;;;;;;;5061265;28;20051;-72
2022/10/15 05:10:21;;;;;;;37.78;20.02;;;;;;;;;;5073002;28;20035;-72
2022/10/15 05:13:28;;;;;;;39.15;20.27;;;;;;;;;;5072841;28;20049;-74
2022/10/15 05:16:33;;;;;;;38.10;19.70;;;;;;;;;;5073356;28;20043;-74
2022/10/15 05:19:38;;;;;;;26.60;19.10;;;;;;;;;;5072471;28;20051;-72
2022/10/15 05:22:43;;;;;;;31.15;18.83;;;;;;;;;;5072555;28;20043;-72
2022/10/15 05:25:50;;;;;;;35.60;19.00;;;;;;;;;;5073405;28;20043;-73
2022/10/15 05:28:59;;;;;;;29.42;18.65;;;;;;;;;;5060912;28;20051;-74
2022/10/15 05:32:07;;;;;;;31.48;19.98;;;;;;;;;;5072528;28;20072;-72
2022/10/15 05:35:12;;;;;;;38.05;20.20;;;;;;;;;;5072824;28;20416;-71
2022/10/15 05:38:30;;;;;;;47.90;21.70;;;;;;;;;;5062908;28;20047;-72
2022/10/15 05:41:34;;;;;;;34.72;19.77;;;;;;;;;;5072322;28;20039;-71
2022/10/15 05:44:39;;;;;;;41.00;22.05;;;;;;;;;;5071241;28;20066;-71
2022/10/15 05:47:43;;;;;;;36.22;21.85;;;;;;;;;;5071226;28;20055;-72
2022/10/15 05:50:59;;;;;;;27.98;18.73;;;;;;;;;;5071114;28;20059;-72
2022/10/15 05:54:04;;;;;;;42.47;20.88;;;;;;;;;;5070886;28;20052;-72
2022/10/15 05:57:08;;;;;;;30.23;19.48;;;;;;;;;;5071697;28;20048;-72
2022/10/15 06:00:13;;;;;;;31.42;19.40;;;;;;;;;;5070860;28;20048;-72
2022/10/15 06:03:17;;;;;;;47.92;19.67;;;;;;;;;;5072520;28;20048;-72
2022/10/15 06:06:25;;;;;;;30.55;18.20;;;;;;;;;;5072665;28;20142;-72
2022/10/15 06:09:29;;;;;;;26.55;17.45;;;;;;;;;;5072797;28;20047;-73
2022/10/15 06:12:34;;;;;;;32.47;18.88;;;;;;;;;;5072713;28;20055;-74
2022/10/15 06:15:40;;;;;;;33.95;19.42;;;;;;;;;;5073150;28;20060;-71
2022/10/15 06:18:46;;;;;;;26.77;20.55;;;;;;;;;;5073127;28;20511;-72
2022/10/15 06:21:51;;;;;;;34.75;23.73;;;;;;;;;;5072702;28;20036;-72
2022/10/15 06:24:56;;;;;;;31.08;21.60;;;;;;;;;;5071433;28;20063;-72
2022/10/15 06:28:04;;;;;;;34.25;21.92;;;;;;;;;;5071468;28;20043;-73
2022/10/15 06:31:19;;;;;;;30.55;21.40;;;;;;;;;;5072226;28;20060;-73
2022/10/15 06:34:23;;;;;;;29.92;20.45;;;;;;;;;;5071920;28;20393;-72
2022/10/15 06:37:29;;;;;;;34.97;20.55;;;;;;;;;;5072963;28;20055;-74
2022/10/15 06:40:37;;;;;;;35.80;20.83;;;;;;;;;;5071512;28;20495;-70
2022/10/15 06:43:42;;;;;;;28.80;19.10;;;;;;;;;;5071991;28;20411;-73
2022/10/15 06:46:46;;;;;;;30.10;19.65;;;;;;;;;;5071101;28;20117;-73
2022/10/15 06:49:50;;;;;;;25.88;18.95;;;;;;;;;;5072029;28;20384;-72
2022/10/15 06:52:55;;;;;;;23.85;19.25;;;;;;;;;;5071985;28;20056;-74
2022/10/15 06:56:03;;;;;;;29.55;19.75;;;;;;;;;;5071634;28;20059;-72
2022/10/15 06:59:13;;;;;;;31.02;20.55;;;;;;;;;;5071818;28;20499;-73
2022/10/15 07:02:18;;;;;;;32.47;20.05;;;;;;;;;;5071826;28;20052;-72
2022/10/15 07:05:22;;;;;;;30.85;20.20;;;;;;;;;;5071172;28;20047;-70
2022/10/15 07:08:27;;;;;;;28.48;19.85;;;;;;;;;;5071197;28;20039;-75
2022/10/15 07:11:31;;;;;;;25.25;18.52;;;;;;;;;;5070890;28;20056;-73
2022/10/15 07:14:35;;;;;;;31.05;19.92;;;;;;;;;;5071422;28;20061;-71
2022/10/15 07:17:50;;;;;;;32.10;20.20;;;;;;;;;;5072174;28;20036;-74
2022/10/15 07:20:56;;;;;;;30.65;20.30;;;;;;;;;;5071668;28;20055;-73
2022/10/15 07:24:01;;;;;;;32.35;22.63;;;;;;;;;;5070709;28;20044;-71
2022/10/15 07:27:05;;;;;;;40.17;22.63;;;;;;;;;;5070514;28;20052;-71
2022/10/15 07:30:10;;;;;;;36.38;22.75;;;;;;;;;;5070752;28;20055;-74
2022/10/15 07:33:14;;;;;;;34.58;21.35;;;;;;;;;;5070555;28;20056;-73
2022/10/15 07:36:29;;;;;;;34.22;21.33;;;;;;;;;;5073069;28;20036;-80
2022/10/15 07:39:34;;;;;;;31.73;20.52;;;;;;;;;;5059389;28;20495;-74
2022/10/15 07:42:39;;;;;;;33.75;19.75;;;;;;;;;;5071606;28;20047;-71
2022/10/15 07:45:48;;;;;;;35.10;21.27;;;;;;;;;;5071627;28;20043;-71
2022/10/15 07:48:53;;;;;;;43.30;21.70;;;;;;;;;;5071173;28;20039;-75
2022/10/15 07:51:58;;;;;;;31.27;21.58;;;;;;;;;;5071313;28;20055;-74
2022/10/15 07:55:02;;;;;;;32.00;20.25;;;;;;;;;;5074836;28;20044;-73
2022/10/15 07:58:07;;;;;;;38.72;23.10;;;;;;;;;;5075097;28;20043;-73
2022/10/15 08:01:12;;;;;;;32.85;22.70;;;;;;;;;;5074087;28;20518;-72
2022/10/15 08:04:16;;;;;;;33.45;23.38;;;;;;;;;;5074677;28;20044;-73
2022/10/15 08:07:22;;;;;;;27.60;19.45;;;;;;;;;;5075025;28;20036;-73
2022/10/15 08:10:27;;;;;;;28.17;19.35;;;;;;;;;;5074841;28;20044;-73
2022/10/15 08:13:35;;;;;;;27.08;19.17;;;;;;;;;;5074987;28;20051;-71
2022/10/15 08:16:44;;;;;;;28.33;18.42;;;;;;;;;;5074580;28;20043;-70
2022/10/15 08:19:52;;;;;;;27.38;21.17;;;;;;;;;;5074540;28;20051;-71
2022/10/15 08:22:59;;;;;;;31.65;20.23;;;;;;;;;;5073485;28;20043;-75
2022/10/15 08:26:04;;;;;;;27.42;19.42;;;;;;;;;;5074727;28;20052;-74
2022/10/15 08:29:10;;;;;;;30.48;20.92;;;;;;;;;;5074664;28;20226;-73
2022/10/15 08:32:14;;;;;;;32.30;19.00;;;;;;;;;;5074020;28;20072;-72
2022/10/15 08:35:18;;;;;;;30.45;20.25;;;;;;;;;;5073271;28;20035;-71
2022/10/15 08:38:23;;;;;;;21.95;15.63;;;;;;;;;;5074535;28;20043;-74
2022/10/15 08:41:37;;;;;;;19.55;15.80;;;;;;;;;;5074668;28;20040;-73
2022/10/15 08:44:47;;;;;;;30.90;21.38;;;;;;;;;;5074294;28;20051;-73
2022/10/15 08:47:57;;;;;;;22.15;18.17;;;;;;;;;;5073739;28;20048;-74
2022/10/15 08:51:18;;;;;;;30.27;20.85;;;;;;;;;;5062032;28;20055;-71
2022/10/15 08:54:22;;;;;;;26.88;20.33;;;;;;;;;;5073776;28;20586;-72
2022/10/15 08:57:38;;;;;;;25.20;18.17;;;;;;;;;;5073771;28;20060;-72
2022/10/15 09:00:45;;;;;;;26.05;19.30;;;;;;;;;;5073606;28;20404;-73
2022/10/15 09:03:52;;;;;;;27.45;19.48;;;;;;;;;;5073871;28;20044;-73
2022/10/15 09:07:15;;;;;;;22.70;15.93;;;;;;;;;;5074016;28;20047;-73
2022/10/15 09:10:34;;;;;;;26.13;17.60;;;;;;;;;;5073938;28;20047;-73
2022/10/15 09:13:40;;;;;;;25.13;18.85;;;;;;;;;;5073417;28;20118;-70
2022/10/15 09:16:47;;;;;;;23.25;17.10;;;;;;;;;;5073483;28;20055;-70
2022/10/15 09:19:54;;;;;;;21.67;16.15;;;;;;;;;;5073672;28;20048;-72
2022/10/15 09:22:58;;;;;;;20.65;15.68;;;;;;;;;;5073997;28;20043;-71
2022/10/15 09:26:23;;;;;;;21.67;16.05;;;;;;;;;;5073525;28;20043;-71
2022/10/15 09:29:53;;;;;;;26.15;17.50;;;;;;;;;;5063442;28;20380;-72
2022/10/15 09:33:14;;;;;;;21.40;15.68;;;;;;;;;;5068536;28;20056;-71
2022/10/15 09:36:27;;;;;;;22.67;17.40;;;;;;;;;;5073799;28;20059;-72
2022/10/15 09:39:44;;;;;;;23.60;17.95;;;;;;;;;;5073534;28;20052;-72
2022/10/15 09:42:49;;;;;;;20.20;16.42;;;;;;;;;;5073361;28;20043;-74
2022/10/15 09:45:53;;;;;;;19.95;15.85;;;;;;;;;;5072837;28;20055;-74
2022/10/15 09:49:37;;;;;;;20.35;15.52;;;;;;;;;;5073130;28;20027;-74
2022/10/15 09:52:50;;;;;;;22.48;15.32;;;;;;;;;;5019196;28;20060;-69
2022/10/15 09:56:04;;;;;;;22.33;15.45;;;;;;;;;;5032154;28;20504;-72
2022/10/15 09:59:14;;;;;;;22.08;16.58;;;;;;;;;;5072704;28;20392;-73
2022/10/15 10:02:19;;;;;;;23.85;16.58;;;;;;;;;;5072240;28;20510;-72
2022/10/15 10:05:29;;;;;;;29.45;20.52;;;;;;;;;;5072711;28;20059;-70
2022/10/15 10:08:48;;;;;;;21.10;16.77;;;;;;;;;;5072210;28;20039;-74
2022/10/15 10:11:54;;;;;;;32.90;17.23;;;;;;;;;;5071684;28;20055;-73
2022/10/15 10:15:02;;;;;;;25.75;14.35;;;;;;;;;;5071384;28;20039;-74
2022/10/15 10:18:23;;;;;;;17.33;13.35;;;;;;;;;;5071972;28;20663;-73
2022/10/15 10:21:29;;;;;;;34.47;18.27;;;;;;;;;;5072696;28;20040;-72
2022/10/15 10:24:34;;;;;;;21.23;14.82;;;;;;;;;;5071703;28;20044;-71
2022/10/15 10:27:45;;;;;;;21.65;15.23;;;;;;;;;;5072574;28;20503;-74
2022/10/15 10:31:02;;;;;;;19.48;15.40;;;;;;;;;;5071010;28;20071;-72
2022/10/15 10:34:06;;;;;;;16.92;13.02;;;;;;;;;;5071924;28;20051;-72
2022/10/15 10:37:11;;;;;;;19.05;14.65;;;;;;;;;;5071782;28;20051;-72
2022/10/15 10:40:23;;;;;;;21.05;14.73;;;;;;;;;;5071356;28;20059;-72
2022/10/15 10:43:29;;;;;;;17.85;13.98;;;;;;;;;;5072057;28;20051;-73
2022/10/15 10:46:33;;;;;;;15.40;13.15;;;;;;;;;;5071943;28;20503;-72
2022/10/15 10:49:39;;;;;;;18.17;13.15;;;;;;;;;;5071943;28;20048;-72
2022/10/15 10:52:46;;;;;;;15.30;12.40;;;;;;;;;;5071509;28;20063;-72
2022/10/15 10:55:53;;;;;;;18.88;14.02;;;;;;;;;;5071987;28;20040;-72
2022/10/15 10:59:14;;;;;;;20.10;13.98;;;;;;;;;;5071625;28;20048;-73
2022/10/15 11:02:19;;;;;;;19.73;14.10;;;;;;;;;;5071546;28;20039;-72
2022/10/15 11:05:28;;;;;;;18.30;13.32;;;;;;;;;;5071391;28;20043;-72
2022/10/15 11:08:32;;;;;;;14.02;11.77;;;;;;;;;;5070391;28;20039;-71
2022/10/15 11:11:46;;;;;;;19.40;12.80;;;;;;;;;;5071630;28;20439;-70
2022/10/15 11:15:10;;;;;;;16.33;11.90;;;;;;;;;;5071698;28;20043;-71
2022/10/15 11:18:17;;;;;;;17.35;13.10;;;;;;;;;;5071805;28;20044;-71
2022/10/15 11:21:27;;;;;;;16.55;13.07;;;;;;;;;;5070863;28;20051;-69
2022/10/15 11:24:50;;;;;;;18.27;14.35;;;;;;;;;;5071520;28;20043;-71
2022/10/15 11:28:14;;;;;;;18.25;11.85;;;;;;;;;;5071500;28;20404;-70
2022/10/15 11:31:24;;;;;;;14.52;11.25;;;;;;;;;;5060936;28;20059;-70
2022/10/15 11:34:44;;;;;;;18.35;12.68;;;;;;;;;;5070472;28;20055;-72
2022/10/15 11:37:53;;;;;;;15.20;11.55;;;;;;;;;;5071076;28;20040;-70
2022/10/15 11:41:03;;;;;;;14.05;11.57;;;;;;;;;;5071259;28;20044;-70
2022/10/15 11:44:25;;;;;;;18.38;12.15;;;;;;;;;;5070840;28;20040;-69
2022/10/15 11:47:46;;;;;;;16.63;10.85;;;;;;;;;;5071266;28;20356;-70
2022/10/15 11:50:51;;;;;;;;;;;;;;;;;;5071484;28;20044;-69
2022/10/15 11:53:56;;;;;;;15.13;10.00;;;;;;;;;;5070898;28;20296;-68
2022/10/15 11:57:01;;;;;;;15.02;10.10;;;;;;;;;;5071199;28;20044;-69
2022/10/15 12:00:15;;;;;;;13.88;10.23;;;;;;;;;;5071490;28;20392;-70
2022/10/15 12:03:25;;;;;;;13.88;9.55;;;;;;;;;;5071006;28;20047;-69
2022/10/15 12:06:32;;;;;;;10.45;9.10;;;;;;;;;;5071078;28;20040;-69
2022/10/15 12:09:37;;;;;;;15.90;11.38;;;;;;;;;;5070668;28;20040;-70
2022/10/15 12:12:49;;;;;;;12.87;10.60;;;;;;;;;;5070713;28;20416;-70
2022/10/15 12:16:12;;;;;;;13.63;9.43;;;;;;;;;;5071161;28;20047;-70
2022/10/15 12:19:21;;;;;;;11.35;9.57;;;;;;;;;;5071246;28;20041;-70
2022/10/15 12:22:32;;;;;;;11.55;9.30;;;;;;;;;;5070362;28;20040;-70
2022/10/15 12:25:36;;;;;;;12.13;10.13;;;;;;;;;;5070415;28;20036;-70
2022/10/15 12:28:47;;;;;;;11.40;9.35;;;;;;;;;;5070908;28;20063;-70
2022/10/15 12:31:55;;;;;;;14.27;9.60;;;;;;;;;;5070604;28;20045;-69
2022/10/15 12:35:05;;;;;;;12.57;9.20;;;;;;;;;;5070916;28;20041;-71
2022/10/15 12:38:21;;;;;;;11.93;9.25;;;;;;;;;;5070802;28;20040;-72
2022/10/15 12:41:39;;;;;;;11.07;8.88;;;;;;;;;;5074135;28;20037;-72
2022/10/15 12:44:47;;;;;;;11.75;9.45;;;;;;;;;;5074298;28;20036;-70
2022/10/15 12:48:12;;;;;;;12.45;8.65;;;;;;;;;;5073793;28;20393;-71
2022/10/15 12:51:21;;;;;;;13.75;8.27;;;;;;;;;;5074045;28;20041;-71
2022/10/15 12:54:38;;;;;;;9.45;7.65;;;;;;;;;;5074285;28;20032;-70
2022/10/15 12:57:52;;;;;;;9.35;8.15;;;;;;;;;;5073613;28;20037;-69
2022/10/15 13:00:59;;;;;;;12.75;8.35;;;;;;;;;;5074705;28;20033;-79
2022/10/15 13:04:03;;;;;;;9.48;7.38;;;;;;;;;;5072904;28;20492;-72
2022/10/15 13:07:11;;;;;;;9.25;7.05;;;;;;;;;;5073039;28;20032;-71
2022/10/15 13:10:21;;;;;;;11.02;7.65;;;;;;;;;;5073933;28;20365;-69
2022/10/15 13:13:30;;;;;;;10.10;8.43;;;;;;;;;;5073292;28;20052;-71
2022/10/15 13:16:36;;;;;;;11.57;8.43;;;;;;;;;;5073923;28;20040;-71
2022/10/15 13:19:46;;;;;;;9.27;6.68;;;;;;;;;;5072950;28;20479;-71
2022/10/15 13:22:50;;;;;;;10.05;8.02;;;;;;;;;;5073713;28;20036;-72
2022/10/15 13:26:14;;;;;;;13.18;9.02;;;;;;;;;;5073878;28;20044;-69
2022/10/15 13:29:21;;;;;;;14.23;8.98;;;;;;;;;;5072861;28;20164;-70
2022/10/15 13:32:26;;;;;;;13.18;8.32;;;;;;;;;;5071765;28;20045;-70
2022/10/15 13:35:33;;;;;;;12.95;9.10;;;;;;;;;;5072377;28;20036;-70
2022/10/15 13:38:38;;;;;;;11.40;8.82;;;;;;;;;;5072879;28;20472;-70
2022/10/15 13:41:43;;;;;;;17.60;10.52;;;;;;;;;;5072176;28;20040;-70
2022/10/15 13:44:56;;;;;;;19.77;12.55;;;;;;;;;;5072884;28;20040;-70
2022/10/15 13:48:00;;;;;;;14.40;10.82;;;;;;;;;;5073004;28;20047;-70
2022/10/15 13:51:05;;;;;;;16.20;10.52;;;;;;;;;;5072490;28;20043;-70
2022/10/15 13:54:11;;;;;;;15.25;10.68;;;;;;;;;;5072677;28;20451;-71
2022/10/15 13:57:16;;;;;;;12.65;9.98;;;;;;;;;;5072559;28;20403;-70
2022/10/15 14:00:28;;;;;;;11.55;9.15;;;;;;;;;;5072056;28;20040;-70
2022/10/15 14:03:35;;;;;;;23.88;16.98;;;;;;;;;;5072713;28;20040;-69
2022/10/15 14:06:40;;;;;;;19.35;14.50;;;;;;;;;;5072344;28;20538;-71
2022/10/15 14:09:46;;;;;;;25.73;17.05;;;;;;;;;;5072632;28;20048;-70
2022/10/15 14:12:53;;;;;;;20.25;15.35;;;;;;;;;;5071506;28;20155;-71
2022/10/15 14:16:21;;;;;;;23.67;16.23;;;;;;;;;;5072317;28;20043;-71
2022/10/15 14:19:28;;;;;;;21.08;16.73;;;;;;;;;;5072244;28;20043;-70
2022/10/15 14:22:33;;;;;;;20.48;15.98;;;;;;;;;;5072487;28;20043;-71
2022/10/15 14:25:37;;;;;;;23.58;17.35;;;;;;;;;;5070417;28;20511;-70
2022/10/15 14:28:42;;;;;;;22.50;16.95;;;;;;;;;;5071358;28;20043;-71
2022/10/15 14:31:48;;;;;;;28.83;18.60;;;;;;;;;;5071705;28;20055;-71
2022/10/15 14:34:54;;;;;;;22.33;15.77;;;;;;;;;;5071082;28;20400;-71
2022/10/15 14:38:18;;;;;;;20.58;16.25;;;;;;;;;;5071806;28;20115;-70
2022/10/15 14:41:33;;;;;;;26.35;19.10;;;;;;;;;;5071336;28;20388;-70
2022/10/15 14:44:42;;;;;;;28.88;19.33;;;;;;;;;;5071946;28;20067;-71
2022/10/15 14:47:52;;;;;;;22.13;18.00;;;;;;;;;;5070919;28;20043;-71
2022/10/15 14:51:00;;;;;;;22.35;16.65;;;;;;;;;;5071073;28;20051;-71
2022/10/15 14:54:04;;;;;;;22.85;18.55;;;;;;;;;;5071625;28;20055;-70
2022/10/15 14:57:22;;;;;;;26.23;17.88;;;;;;;;;;5071081;28;20047;-70
2022/10/15 15:00:38;;;;;;;28.38;17.95;;;;;;;;;;5071252;28;20056;-69
2022/10/15 15:03:45;;;;;;;32.63;19.95;;;;;;;;;;5071372;28;20396;-71
2022/10/15 15:06:49;;;;;;;26.88;18.10;;;;;;;;;;5071709;28;20044;-71
2022/10/15 15:09:53;;;;;;;28.77;18.73;;;;;;;;;;5071421;28;20032;-71
2022/10/15 15:12:58;;;;;;;27.25;19.85;;;;;;;;;;5070329;28;20051;-70
2022/10/15 15:16:02;;;;;;;25.17;17.98;;;;;;;;;;5070435;28;20043;-70
2022/10/15 15:19:08;;;;;;;24.70;18.52;;;;;;;;;;5071597;28;20043;-70
2022/10/15 15:22:23;;;;;;;25.30;16.85;;;;;;;;;;5059297;28;20578;-69
2022/10/15 15:25:32;;;;;;;26.80;17.92;;;;;;;;;;5071358;28;20047;-70
2022/10/15 15:28:36;;;;;;;24.63;17.67;;;;;;;;;;5071364;28;20047;-71
2022/10/15 15:31:41;;;;;;;25.13;17.92;;;;;;;;;;5070402;28;20063;-70
2022/10/15 15:34:46;;;;;;;23.77;18.08;;;;;;;;;;5071097;28;20047;-70
2022/10/15 15:37:51;;;;;;;34.88;19.02;;;;;;;;;;5071484;28;20044;-73
2022/10/15 15:41:02;;;;;;;28.75;19.30;;;;;;;;;;5069365;28;20055;-70
2022/10/15 15:44:06;;;;;;;26.63;19.40;;;;;;;;;;5071044;28;20056;-70
2022/10/15 15:47:11;;;;;;;41.20;21.50;;;;;;;;;;5070999;28;20416;-70
2022/10/15 15:50:16;;;;;;;36.38;21.23;;;;;;;;;;5070225;28;20039;-70
2022/10/15 15:53:20;;;;;;;31.92;21.00;;;;;;;;;;5070190;28;20051;-70
2022/10/15 15:56:24;;;;;;;27.25;19.65;;;;;;;;;;5071062;28;20048;-70
2022/10/15 15:59:29;;;;;;;29.55;21.33;;;;;;;;;;5070881;28;20047;-70
2022/10/15 16:02:33;;;;;;;29.02;21.13;;;;;;;;;;5070816;28;20039;-70
2022/10/15 16:05:39;;;;;;;32.15;22.08;;;;;;;;;;5070855;28;20040;-70
2022/10/15 16:08:43;;;;;;;36.00;21.38;;;;;;;;;;5070412;28;20047;-70
2022/10/15 16:11:48;;;;;;;35.97;23.98;;;;;;;;;;5070603;28;20290;-70
2022/10/15 16:14:53;;;;;;;32.08;22.05;;;;;;;;;;5074584;28;20047;-70
2022/10/15 16:17:58;;;;;;;43.70;24.20;;;;;;;;;;5073840;28;20067;-70
2022/10/15 16:21:02;;;;;;;39.03;24.40;;;;;;;;;;5074206;28;20386;-70
2022/10/15 16:24:07;;;;;;;33.72;22.55;;;;;;;;;;5074219;28;20395;-70
2022/10/15 16:27:11;;;;;;;42.25;22.85;;;;;;;;;;5074251;28;20040;-70
2022/10/15 16:30:15;;;;;;;37.72;25.58;;;;;;;;;;5074141;28;20060;-71
2022/10/15 16:33:21;;;;;;;43.92;25.58;;;;;;;;;;5074241;28;20511;-70
2022/10/15 16:36:25;;;;;;;39.90;27.23;;;;;;;;;;5073958;28;20043;-69
2022/10/15 16:39:30;;;;;;;42.45;25.83;;;;;;;;;;5073997;28;20044;-69
2022/10/15 16:42:34;;;;;;;43.50;27.55;;;;;;;;;;5073530;28;20110;-68
2022/10/15 16:45:38;;;;;;;45.42;29.20;;;;;;;;;;5073506;28;20043;-68
2022/10/15 16:48:43;;;;;;;43.00;27.98;;;;;;;;;;5073822;28;20047;-68
2022/10/15 16:51:47;;;;;;;42.33;27.20;;;;;;;;;;5073624;28;20427;-69
2022/10/15 16:54:51;;;;;;;38.42;27.20;;;;;;;;;;5073532;28;20056;-69
2022/10/15 16:57:55;;;;;;;41.65;27.45;;;;;;;;;;5073472;28;20047;-69
2022/10/15 17:01:00;;;;;;;44.65;28.42;;;;;;;;;;5073711;28;20048;-67
2022/10/15 17:04:04;;;;;;;41.15;28.98;;;;;;;;;;5073706;28;20506;-67
2022/10/15 17:07:09;;;;;;;47.55;30.70;;;;;;;;;;5072632;28;20047;-68
2022/10/15 17:10:13;;;;;;;49.05;29.17;;;;;;;;;;5073573;28;20039;-68
2022/10/15 17:13:19;;;;;;;45.85;28.63;;;;;;;;;;5072804;28;20522;-68
2022/10/15 17:16:25;;;;;;;47.70;28.75;;;;;;;;;;5073167;28;20040;-69
2022/10/15 17:19:29;;;;;;;44.28;27.95;;;;;;;;;;5073490;28;20043;-69
2022/10/15 17:22:34;;;;;;;44.97;27.30;;;;;;;;;;5073096;28;20310;-69
2022/10/15 17:25:39;;;;;;;47.35;27.42;;;;;;;;;;5072295;28;20044;-70
2022/10/15 17:28:45;;;;;;;46.90;26.88;;;;;;;;;;5072834;28;20395;-69
2022/10/15 17:31:50;;;;;;;52.95;30.13;;;;;;;;;;5072580;28;20052;-68
2022/10/15 17:34:54;;;;;;;58.25;33.10;;;;;;;;;;5072742;28;20047;-67
2022/10/15 17:37:58;;;;;;;50.40;32.78;;;;;;;;;;5072539;28;20038;-69
2022/10/15 17:41:10;;;;;;;45.83;30.63;;;;;;;;;;5072734;28;20067;-69
2022/10/15 17:44:15;;;;;;;47.28;28.00;;;;;;;;;;5072602;28;20055;-68
2022/10/15 17:47:19;;;;;;;43.28;29.33;;;;;;;;;;5072717;28;20036;-68
2022/10/15 17:50:23;;;;;;;53.90;29.48;;;;;;;;;;5072697;28;20044;-68
2022/10/15 17:53:29;;;;;;;47.17;30.60;;;;;;;;;;5072074;28;20047;-68
2022/10/15 17:56:34;;;;;;;49.47;31.42;;;;;;;;;;5072435;28;20048;-68
2022/10/15 17:59:39;;;;;;;50.22;30.70;;;;;;;;;;5072392;28;20051;-69
2022/10/15 18:02:43;;;;;;;50.85;31.58;;;;;;;;;;5072169;28;20198;-69
2022/10/15 18:05:47;;;;;;;50.88;33.55;;;;;;;;;;5072347;28;20051;-69
2022/10/15 18:08:52;;;;;;;49.92;31.10;;;;;;;;;;5072032;28;20047;-68
2022/10/15 18:11:57;;;;;;;47.50;29.70;;;;;;;;;;5071955;28;20051;-68
2022/10/15 18:15:06;;;;;;;64.25;34.20;;;;;;;;;;5071692;28;20055;-68
2022/10/15 18:18:10;;;;;;;55.03;32.58;;;;;;;;;;5071901;28;20051;-68